Time;durP1;ratioP1;P1;durP2;ratioP2;P2;SDS_P1;SDS_P2;PMS_P1;PMS_P2;Temp;Humidity;BMP_temperature;BMP_pressure;BME280_temperature;BME280_humidity;BME280_pressure;Samples;Min_cycle;Max_cycle;Signal;HPM_P1;HPM_P2
2023/09/21 00:00:45;;;;;;;;;;;25.60;77.50;;;;;;5108094;27;42956;-80
2023/09/21 00:03:11;;;;;;;;;;;25.40;77.40;;;;;;5107178;27;43737;-80
2023/09/21 00:05:39;;;;;;;;;;;25.40;77.20;;;;;;5107641;27;42794;-80
2023/09/21 00:08:06;;;;;;;;;;;25.40;77.40;;;;;;5107146;27;43843;-80
2023/09/21 00:10:32;;;;;;;;;;;25.50;77.40;;;;;;5107404;27;42974;-80
2023/09/21 00:12:59;;;;;;;;;;;25.30;77.20;;;;;;5104948;27;43192;-81
2023/09/21 00:15:29;;;;;;;;;;;25.10;76.30;;;;;;5106799;27;43041;-80
2023/09/21 00:17:56;;;;;;;;;;;25.40;76.90;;;;;;5106806;27;43514;-80
2023/09/21 00:20:25;;;;;;;;;;;25.30;77.00;;;;;;5105987;27;43742;-81
2023/09/21 00:22:51;;;;;;;;;;;25.40;75.10;;;;;;5107013;27;43419;-80
2023/09/21 00:25:17;;;;;;;;;;;25.50;77.30;;;;;;5102503;27;43059;-81
2023/09/21 00:27:44;;;;;;;;;;;25.40;76.90;;;;;;5098369;27;43583;-81
2023/09/21 00:30:10;;;;;;;;;;;25.60;77.20;;;;;;5105699;27;44043;-81
2023/09/21 00:32:38;;;;;;;;;;;25.50;76.30;;;;;;5106190;27;43625;-81
2023/09/21 00:35:07;;;;;;;;;;;25.40;76.40;;;;;;5105172;27;43042;-80
2023/09/21 00:37:36;;;;;;;;;;;25.40;76.40;;;;;;5106218;27;43546;-80
2023/09/21 00:40:13;;;;;;;;;;;25.40;76.80;;;;;;5105951;27;43380;-80
2023/09/21 00:42:39;;;;;;;;;;;25.40;76.50;;;;;;5106616;27;42933;-81
2023/09/21 00:45:04;;;;;;;;;;;25.60;76.70;;;;;;5105393;27;43225;-80
2023/09/21 00:47:30;;;;;;;;;;;25.50;76.30;;;;;;5087920;27;45407;-80
2023/09/21 00:49:55;;;;;;;;;;;25.40;77.10;;;;;;5106842;27;42943;-80
2023/09/21 00:52:21;;;;;;;;;;;25.40;77.00;;;;;;5107117;27;43916;-81
2023/09/21 00:54:46;;;;;;;;;;;25.40;76.40;;;;;;5107042;27;43113;-80
2023/09/21 00:57:13;;;;;;;;;;;25.40;76.80;;;;;;5106601;27;42822;-80
2023/09/21 00:59:45;;;;;;;;;;;25.40;76.40;;;;;;5106349;27;43006;-79
2023/09/21 01:02:11;;;;;;;;;;;25.40;76.30;;;;;;5106160;27;42936;-80
2023/09/21 01:04:37;;;;;;;;;;;25.40;75.90;;;;;;5105783;27;43149;-81
2023/09/21 01:07:20;;;;;;;;;;;25.40;75.60;;;;;;5106225;27;43398;-80
2023/09/21 01:09:46;;;;;;;;;;;25.20;75.90;;;;;;5106398;27;42870;-80
2023/09/21 01:12:13;;;;;;;;;;;25.40;75.90;;;;;;5106211;27;43028;-80
2023/09/21 01:14:39;;;;;;;;;;;25.50;75.70;;;;;;5105713;27;43329;-80
2023/09/21 01:17:04;;;;;;;;;;;25.20;75.30;;;;;;5106173;27;43566;-80
2023/09/21 01:19:30;;;;;;;;;;;25.30;75.30;;;;;;5104485;27;44076;-80
2023/09/21 01:21:57;;;;;;;;;;;25.30;74.60;;;;;;5085568;27;44688;-80
2023/09/21 01:24:23;;;;;;;;;;;25.40;75.20;;;;;;5106273;27;43087;-80
2023/09/21 01:26:48;;;;;;;;;;;25.20;74.80;;;;;;5104656;27;43732;-80
2023/09/21 01:29:14;;;;;;;;;;;25.20;74.70;;;;;;5106187;27;42934;-79
2023/09/21 01:31:40;;;;;;;;;;;25.40;74.80;;;;;;5105673;27;43280;-80
2023/09/21 01:34:05;;;;;;;;;;;25.40;74.80;;;;;;5105466;27;42915;-80
2023/09/21 01:36:32;;;;;;;;;;;25.40;74.90;;;;;;5105781;27;43432;-80
2023/09/21 01:38:58;;;;;;;;;;;25.20;74.80;;;;;;5103869;27;43029;-80
2023/09/21 01:41:24;;;;;;;;;;;25.40;74.30;;;;;;5105210;27;43418;-80
2023/09/21 01:43:49;;;;;;;;;;;25.40;74.70;;;;;;5106262;27;43031;-80
2023/09/21 01:46:21;;;;;;;;;;;25.30;74.10;;;;;;5086477;27;44651;-80
2023/09/21 01:48:46;;;;;;;;;;;25.30;74.40;;;;;;5104856;27;42817;-80
2023/09/21 01:51:12;;;;;;;;;;;25.50;73.70;;;;;;5105776;27;43105;-80
2023/09/21 01:53:38;;;;;;;;;;;25.50;73.70;;;;;;5105810;27;42785;-80
2023/09/21 01:56:04;;;;;;;;;;;25.40;73.40;;;;;;5105314;27;44006;-80
2023/09/21 01:58:31;;;;;;;;;;;25.30;73.20;;;;;;5091111;27;60607;-80
2023/09/21 02:00:56;;;;;;;;;;;25.40;73.60;;;;;;5100704;27;43001;-81
2023/09/21 02:03:25;;;;;;;;;;;25.40;73.80;;;;;;5104116;27;42895;-80
2023/09/21 02:05:50;;;;;;;;;;;25.40;73.70;;;;;;5104821;27;44442;-80
2023/09/21 02:08:17;;;;;;;;;;;25.20;73.60;;;;;;5105209;27;42846;-80
2023/09/21 02:10:43;;;;;;;;;;;25.30;73.80;;;;;;5100594;27;43020;-79
2023/09/21 02:13:09;;;;;;;;;;;25.30;74.10;;;;;;5105141;27;43170;-80
2023/09/21 02:15:37;;;;;;;;;;;25.40;73.70;;;;;;5103825;27;42967;-81
2023/09/21 02:18:04;;;;;;;;;;;25.50;73.40;;;;;;5104946;27;42910;-79
2023/09/21 02:20:30;;;;;;;;;;;25.50;73.00;;;;;;5104853;27;43498;-80
2023/09/21 02:23:00;;;;;;;;;;;25.40;73.10;;;;;;5104323;27;43038;-80
2023/09/21 02:25:27;;;;;;;;;;;25.50;71.80;;;;;;5104041;27;42986;-80
2023/09/21 02:27:53;;;;;;;;;;;25.20;73.40;;;;;;5103742;27;42885;-80
2023/09/21 02:30:21;;;;;;;;;;;25.00;73.40;;;;;;5085165;27;44488;-81
2023/09/21 02:32:49;;;;;;;;;;;24.90;73.50;;;;;;5094730;27;43452;-80
2023/09/21 02:35:16;;;;;;;;;;;25.10;73.50;;;;;;5104109;27;42983;-79
2023/09/21 02:37:46;;;;;;;;;;;24.90;73.20;;;;;;5103296;27;43251;-80
2023/09/21 02:40:14;;;;;;;;;;;25.30;71.20;;;;;;5103167;27;43528;-80
2023/09/21 02:42:49;;;;;;;;;;;25.10;73.10;;;;;;5095593;27;43042;-81
2023/09/21 02:45:15;;;;;;;;;;;25.20;72.90;;;;;;5103501;27;43173;-80
2023/09/21 02:47:45;;;;;;;;;;;25.20;73.80;;;;;;5104406;27;42823;-80
2023/09/21 02:50:14;;;;;;;;;;;25.10;72.80;;;;;;5105133;27;42923;-81
2023/09/21 02:52:56;;;;;;;;;;;25.10;73.40;;;;;;5104800;27;42928;-80
2023/09/21 02:55:26;;;;;;;;;;;25.10;71.20;;;;;;5103795;27;44059;-80
2023/09/21 02:57:59;;;;;;;;;;;24.90;70.70;;;;;;5085333;27;42926;-80
2023/09/21 03:00:35;;;;;;;;;;;24.60;70.50;;;;;;5101962;27;43639;-80
2023/09/21 03:03:01;;;;;;;;;;;25.10;73.00;;;;;;5103649;27;43103;-79
2023/09/21 03:05:27;;;;;;;;;;;25.40;73.20;;;;;;5104720;27;42963;-80
2023/09/21 03:07:56;;;;;;;;;;;25.10;72.90;;;;;;5103973;27;43016;-80
2023/09/21 03:10:22;;;;;;;;;;;24.90;72.50;;;;;;5103481;27;44582;-80
2023/09/21 03:12:48;;;;;;;;;;;25.10;72.60;;;;;;5102292;27;43754;-80
2023/09/21 03:15:14;;;;;;;;;;;25.20;72.00;;;;;;5107699;27;44723;-80
2023/09/21 03:17:43;;;;;;;;;;;25.10;72.40;;;;;;5088925;27;43640;-80
2023/09/21 03:20:12;;;;;;;;;;;25.10;72.00;;;;;;5107068;27;42892;-80
2023/09/21 03:22:38;;;;;;;;;;;25.10;70.30;;;;;;5107985;27;42955;-80
2023/09/21 03:25:05;;;;;;;;;;;25.00;72.80;;;;;;5107088;27;43381;-80
2023/09/21 03:27:31;;;;;;;;;;;25.10;72.00;;;;;;5107171;27;43321;-80
2023/09/21 03:29:56;;;;;;;;;;;25.00;72.70;;;;;;5107718;27;43550;-80
2023/09/21 03:32:25;;;;;;;;;;;25.00;72.00;;;;;;5107701;27;42968;-81
2023/09/21 03:34:51;;;;;;;;;;;25.00;72.50;;;;;;5107285;27;43196;-80
2023/09/21 03:37:17;;;;;;;;;;;24.80;72.40;;;;;;5108388;27;43062;-80
2023/09/21 03:39:42;;;;;;;;;;;24.90;72.70;;;;;;5107133;27;43241;-80
2023/09/21 03:42:09;;;;;;;;;;;24.80;72.70;;;;;;5108216;27;43675;-80
2023/09/21 03:44:35;;;;;;;;;;;24.90;72.70;;;;;;5105283;27;43394;-80
2023/09/21 03:47:03;;;;;;;;;;;24.90;72.70;;;;;;5107103;27;43297;-80
2023/09/21 03:49:30;;;;;;;;;;;24.80;72.70;;;;;;5107154;27;43000;-80
2023/09/21 03:51:56;;;;;;;;;;;24.80;72.10;;;;;;5107630;27;43015;-80
2023/09/21 03:54:21;;;;;;;;;;;24.90;72.70;;;;;;5106591;27;42941;-81
2023/09/21 03:56:47;;;;;;;;;;;24.90;72.60;;;;;;5106961;27;42995;-80
2023/09/21 03:59:12;;;;;;;;;;;24.70;72.60;;;;;;5106576;27;43014;-80
2023/09/21 04:01:38;;;;;;;;;;;25.20;72.70;;;;;;5107529;27;42940;-80
2023/09/21 04:04:08;;;;;;;;;;;24.90;72.40;;;;;;5107067;27;42880;-79
2023/09/21 04:06:34;;;;;;;;;;;24.80;71.80;;;;;;5096301;27;42988;-80
2023/09/21 04:09:01;;;;;;;;;;;24.80;72.30;;;;;;5106386;27;43482;-80
2023/09/21 04:11:28;;;;;;;;;;;24.90;72.10;;;;;;5105712;27;43065;-81
2023/09/21 04:13:54;;;;;;;;;;;24.90;71.60;;;;;;5106568;27;43968;-82
2023/09/21 04:16:19;;;;;;;;;;;24.80;71.80;;;;;;5106388;27;42992;-80
2023/09/21 04:18:46;;;;;;;;;;;24.90;71.70;;;;;;5106420;27;42979;-81
2023/09/21 04:21:11;;;;;;;;;;;24.90;71.60;;;;;;5106530;27;42951;-81
2023/09/21 04:23:37;;;;;;;;;;;25.00;71.80;;;;;;5106297;27;43540;-80
2023/09/21 04:26:02;;;;;;;;;;;24.90;71.30;;;;;;5105438;27;43075;-81
2023/09/21 04:28:28;;;;;;;;;;;24.90;71.30;;;;;;5106807;27;42896;-80
2023/09/21 04:30:53;;;;;;;;;;;24.90;71.90;;;;;;5105790;27;43300;-81
2023/09/21 04:33:19;;;;;;;;;;;24.80;71.80;;;;;;5098769;27;43555;-81
2023/09/21 04:35:44;;;;;;;;;;;25.10;72.00;;;;;;5103529;27;43725;-80
2023/09/21 04:38:10;;;;;;;;;;;24.80;71.80;;;;;;5090475;27;43544;-81
2023/09/21 04:40:36;;;;;;;;;;;24.70;71.80;;;;;;5105413;27;42866;-81
2023/09/21 04:43:01;;;;;;;;;;;25.00;71.20;;;;;;5086656;27;45910;-85
2023/09/21 04:45:27;;;;;;;;;;;25.10;71.20;;;;;;5086628;27;43429;-82
2023/09/21 04:47:58;;;;;;;;;;;25.10;71.50;;;;;;5101709;27;43700;-81
2023/09/21 04:50:24;;;;;;;;;;;25.10;71.50;;;;;;5104894;27;42975;-80
2023/09/21 04:52:50;;;;;;;;;;;25.10;71.80;;;;;;5083336;27;44450;-80
2023/09/21 04:55:16;;;;;;;;;;;24.80;71.50;;;;;;5105237;27;43226;-81
2023/09/21 04:57:41;;;;;;;;;;;24.80;71.60;;;;;;5099159;27;42930;-80
2023/09/21 05:00:10;;;;;;;;;;;24.70;71.90;;;;;;5104863;27;42941;-81
2023/09/21 05:02:36;;;;;;;;;;;24.60;71.30;;;;;;5078138;27;43089;-82
2023/09/21 05:05:02;;;;;;;;;;;24.60;72.20;;;;;;5094564;27;42922;-81
2023/09/21 05:07:28;;;;;;;;;;;24.50;72.30;;;;;;5105919;27;43015;-82
2023/09/21 05:09:54;;;;;;;;;;;24.50;72.20;;;;;;5106789;27;42911;-82
2023/09/21 05:12:19;;;;;;;;;;;24.40;72.20;;;;;;5106408;27;43489;-83
2023/09/21 05:14:45;;;;;;;;;;;24.40;71.60;;;;;;5105988;27;42998;-82
2023/09/21 05:17:11;;;;;;;;;;;24.20;72.20;;;;;;5102922;27;44271;-82
2023/09/21 05:19:37;;;;;;;;;;;24.30;72.50;;;;;;5104913;27;42947;-81
2023/09/21 05:22:04;;;;;;;;;;;24.30;72.00;;;;;;5106831;27;43024;-82
2023/09/21 05:24:30;;;;;;;;;;;24.50;72.60;;;;;;5087954;27;43137;-84
2023/09/21 05:26:55;;;;;;;;;;;24.30;72.00;;;;;;5103219;27;43058;-81
2023/09/21 05:29:21;;;;;;;;;;;24.20;73.10;;;;;;5087216;27;42881;-81
2023/09/21 05:31:48;;;;;;;;;;;24.20;73.10;;;;;;5105529;27;44290;-81
2023/09/21 05:34:13;;;;;;;;;;;24.00;73.50;;;;;;5098346;27;43012;-82
2023/09/21 05:36:39;;;;;;;;;;;24.10;73.60;;;;;;5105499;27;43508;-81
2023/09/21 05:39:05;;;;;;;;;;;24.20;73.50;;;;;;5106053;27;42916;-81
2023/09/21 05:41:31;;;;;;;;;;;24.10;73.30;;;;;;5105252;27;43078;-82
2023/09/21 05:43:57;;;;;;;;;;;24.20;72.90;;;;;;5102275;27;43083;-81
2023/09/21 05:46:23;;;;;;;;;;;24.20;72.50;;;;;;5093174;27;42994;-81
2023/09/21 05:48:49;;;;;;;;;;;24.20;73.00;;;;;;5106771;27;42893;-81
2023/09/21 05:51:15;;;;;;;;;;;24.20;73.00;;;;;;5105624;27;43463;-82
2023/09/21 05:53:41;;;;;;;;;;;24.40;72.70;;;;;;5106091;27;42914;-81
2023/09/21 05:56:06;;;;;;;;;;;24.30;73.50;;;;;;5101560;27;42995;-81
2023/09/21 05:58:32;;;;;;;;;;;24.20;73.50;;;;;;5102148;27;42947;-81
2023/09/21 06:01:00;;;;;;;;;;;24.10;73.90;;;;;;5104943;27;43673;-80
2023/09/21 06:03:28;;;;;;;;;;;24.00;71.30;;;;;;5105895;27;42999;-81
2023/09/21 06:05:53;;;;;;;;;;;23.90;73.70;;;;;;5104589;27;43337;-81
2023/09/21 06:08:19;;;;;;;;;;;24.30;74.60;;;;;;5105789;27;43123;-82
2023/09/21 06:10:45;;;;;;;;;;;24.10;74.40;;;;;;5102480;27;43343;-82
2023/09/21 06:13:12;;;;;;;;;;;24.00;74.30;;;;;;5105503;27;43003;-81
2023/09/21 06:15:45;;;;;;;;;;;23.90;74.40;;;;;;5104682;27;42941;-81
2023/09/21 06:18:10;;;;;;;;;;;24.10;75.10;;;;;;5105339;27;43014;-81
2023/09/21 06:20:36;;;;;;;;;;;24.10;74.30;;;;;;5104670;27;43170;-81
2023/09/21 06:23:02;;;;;;;;;;;24.20;74.00;;;;;;5105017;27;43036;-81
2023/09/21 06:25:27;;;;;;;;;;;24.10;73.90;;;;;;5104725;27;42988;-81
2023/09/21 06:27:53;;;;;;;;;;;24.40;74.20;;;;;;5104656;27;43004;-80
2023/09/21 06:30:22;;;;;;;;;;;24.30;73.90;;;;;;5104805;27;42952;-80
2023/09/21 06:32:47;;;;;;;;;;;24.20;73.80;;;;;;5104809;27;42980;-82
2023/09/21 06:35:14;;;;;;;;;;;24.20;74.30;;;;;;5104661;27;43157;-81
2023/09/21 06:37:40;;;;;;;;;;;24.30;73.70;;;;;;5105256;27;42960;-81
2023/09/21 06:40:06;;;;;;;;;;;24.10;74.10;;;;;;5100506;27;43429;-80
2023/09/21 06:42:32;;;;;;;;;;;24.30;73.70;;;;;;5103315;27;42920;-81
2023/09/21 06:44:57;;;;;;;;;;;24.10;74.30;;;;;;5103693;27;44258;-80
2023/09/21 06:47:26;;;;;;;;;;;24.10;74.30;;;;;;5104250;27;42956;-81
2023/09/21 06:49:53;;;;;;;;;;;24.30;74.50;;;;;;5103473;27;43664;-80
2023/09/21 06:52:21;;;;;;;;;;;24.10;74.70;;;;;;5104300;27;42936;-81
2023/09/21 06:54:47;;;;;;;;;;;24.20;75.00;;;;;;5103169;27;43564;-81
2023/09/21 06:57:13;;;;;;;;;;;24.30;75.10;;;;;;5104261;27;42960;-81
2023/09/21 06:59:39;;;;;;;;;;;24.10;74.50;;;;;;5100506;27;43192;-81
2023/09/21 07:02:04;;;;;;;;;;;24.10;74.90;;;;;;5103142;27;43063;-79
2023/09/21 07:04:33;;;;;;;;;;;24.10;74.90;;;;;;5103110;27;43634;-81
2023/09/21 07:07:02;;;;;;;;;;;24.30;74.50;;;;;;5099875;27;43013;-81
2023/09/21 07:09:28;;;;;;;;;;;24.10;75.00;;;;;;5088987;27;43564;-81
2023/09/21 07:11:53;;;;;;;;;;;24.20;75.00;;;;;;5099886;27;43247;-81
2023/09/21 07:14:19;;;;;;;;;;;24.30;75.10;;;;;;5103782;27;43022;-81
2023/09/21 07:16:44;;;;;;;;;;;24.30;75.60;;;;;;5104504;27;43045;-85
2023/09/21 07:19:11;;;;;;;;;;;24.10;74.90;;;;;;5104225;27;43580;-80
2023/09/21 07:21:37;;;;;;;;;;;24.30;75.70;;;;;;5103939;27;42849;-81
2023/09/21 07:24:05;;;;;;;;;;;24.10;76.00;;;;;;5103984;27;43526;-80
2023/09/21 07:26:31;;;;;;;;;;;24.20;75.90;;;;;;5104069;27;43067;-81
2023/09/21 07:28:57;;;;;;;;;;;24.10;76.30;;;;;;5102180;27;42999;-81
2023/09/21 07:31:22;;;;;;;;;;;24.20;76.20;;;;;;5099412;27;43069;-81
2023/09/21 07:33:48;;;;;;;;;;;24.30;76.00;;;;;;5104667;27;42995;-81
2023/09/21 07:36:14;;;;;;;;;;;24.30;76.00;;;;;;5100064;27;42972;-80
2023/09/21 07:38:40;;;;;;;;;;;24.30;76.20;;;;;;5099924;27;43045;-81
2023/09/21 07:41:06;;;;;;;;;;;24.30;76.30;;;;;;5103708;27;42913;-82
2023/09/21 07:43:33;;;;;;;;;;;24.30;76.70;;;;;;5103865;27;42987;-81
2023/09/21 07:45:59;;;;;;;;;;;24.30;76.50;;;;;;5104345;27;42944;-80
2023/09/21 07:48:26;;;;;;;;;;;24.40;76.70;;;;;;5100076;27;43602;-81
2023/09/21 07:50:54;;;;;;;;;;;24.40;76.40;;;;;;5103433;27;42917;-81
2023/09/21 07:53:19;;;;;;;;;;;24.50;76.80;;;;;;5101783;27;43744;-81
2023/09/21 07:55:45;;;;;;;;;;;24.50;76.70;;;;;;5103840;27;42898;-81
2023/09/21 07:58:10;;;;;;;;;;;24.30;76.70;;;;;;5103702;27;43033;-81
2023/09/21 08:00:36;;;;;;;;;;;24.30;76.50;;;;;;5105585;27;42893;-81
2023/09/21 08:03:02;;;;;;;;;;;24.40;76.30;;;;;;5107051;27;43006;-82
2023/09/21 08:05:30;;;;;;;;;;;24.50;75.90;;;;;;5107253;27;43035;-81
2023/09/21 08:07:56;;;;;;;;;;;24.60;76.10;;;;;;5106992;27;43461;-81
2023/09/21 08:10:21;;;;;;;;;;;24.70;76.00;;;;;;5106528;27;43217;-81
2023/09/21 08:12:47;;;;;;;;;;;24.50;76.40;;;;;;5088483;27;43512;-82
2023/09/21 08:15:13;;;;;;;;;;;24.40;77.00;;;;;;5106914;27;42925;-80
2023/09/21 08:17:39;;;;;;;;;;;24.40;77.20;;;;;;5107095;27;43081;-81
2023/09/21 08:20:09;;;;;;;;;;;24.30;77.50;;;;;;5106736;27;42982;-81
2023/09/21 08:22:34;;;;;;;;;;;24.40;77.10;;;;;;5107447;27;42930;-81
2023/09/21 08:25:00;;;;;;;;;;;24.50;76.80;;;;;;5107028;27;42880;-81
2023/09/21 08:27:28;;;;;;;;;;;24.50;77.60;;;;;;5107441;27;43087;-81
2023/09/21 08:29:55;;;;;;;;;;;24.40;77.60;;;;;;5100235;27;43063;-82
2023/09/21 08:32:21;;;;;;;;;;;23.80;76.90;;;;;;5107063;27;43776;-81
2023/09/21 08:34:48;;;;;;;;;;;24.30;77.90;;;;;;5106154;27;42976;-81
2023/09/21 08:37:13;;;;;;;;;;;24.40;77.50;;;;;;5106689;27;43067;-81
2023/09/21 08:39:39;;;;;;;;;;;24.40;77.50;;;;;;5106595;27;42958;-81
2023/09/21 08:42:04;;;;;;;;;;;24.40;77.30;;;;;;5104634;27;43380;-80
2023/09/21 08:44:30;;;;;;;;;;;24.60;77.60;;;;;;5105163;27;43079;-80
2023/09/21 08:46:56;;;;;;;;;;;26.30;78.20;;;;;;5106707;27;43695;-80
2023/09/21 08:49:22;;;;;;;;;;;24.60;77.80;;;;;;5106707;27;42904;-81
2023/09/21 08:51:47;;;;;;;;;;;24.50;77.70;;;;;;5106948;27;42984;-80
2023/09/21 08:54:14;;;;;;;;;;;24.60;77.80;;;;;;5103950;27;42992;-81
2023/09/21 08:56:41;;;;;;;;;;;24.60;77.60;;;;;;5097426;27;43725;-81
2023/09/21 08:59:08;;;;;;;;;;;24.30;77.60;;;;;;5105864;27;42970;-81
2023/09/21 09:01:34;;;;;;;;;;;24.70;77.80;;;;;;5087140;27;43068;-80
2023/09/21 09:04:00;;;;;;;;;;;24.70;78.10;;;;;;5100053;27;43062;-81
2023/09/21 09:06:29;;;;;;;;;;;24.60;77.70;;;;;;5100917;27;43010;-80
2023/09/21 09:08:55;;;;;;;;;;;24.40;78.30;;;;;;5099985;27;43011;-81
2023/09/21 09:11:35;;;;;;;;;;;24.60;78.20;;;;;;5105737;27;43367;-80
2023/09/21 09:14:01;;;;;;;;;;;24.40;75.30;;;;;;5106005;27;42948;-81
2023/09/21 09:16:27;;;;;;;;;;;24.40;77.50;;;;;;5087110;27;44403;-81
2023/09/21 09:18:53;;;;;;;;;;;24.40;77.70;;;;;;5105916;27;42909;-81
2023/09/21 09:21:18;;;;;;;;;;;24.50;77.40;;;;;;5106199;27;43525;-80
2023/09/21 09:23:44;;;;;;;;;;;24.50;77.00;;;;;;5104828;27;43420;-81
2023/09/21 09:26:11;;;;;;;;;;;24.70;77.00;;;;;;5105832;27;44469;-80
2023/09/21 09:28:37;;;;;;;;;;;24.40;76.10;;;;;;5106013;27;42903;-81
2023/09/21 09:31:06;;;;;;;;;;;24.60;76.60;;;;;;5105629;27;43506;-80
2023/09/21 09:33:33;;;;;;;;;;;24.60;76.40;;;;;;5086455;27;43073;-81
2023/09/21 09:35:58;;;;;;;;;;;24.60;76.80;;;;;;5105753;27;43206;-81
2023/09/21 09:38:24;;;;;;;;;;;24.50;76.80;;;;;;5105931;27;42986;-82
2023/09/21 09:40:49;;;;;;;;;;;24.70;76.80;;;;;;5105999;27;44133;-81
2023/09/21 09:43:15;;;;;;;;;;;24.50;76.60;;;;;;5087024;27;43511;-81
2023/09/21 09:45:42;;;;;;;;;;;24.50;76.60;;;;;;5105428;27;43433;-80
2023/09/21 09:48:11;;;;;;;;;;;24.50;76.00;;;;;;5104643;27;42987;-81
2023/09/21 09:50:41;;;;;;;;;;;24.70;74.50;;;;;;5104651;27;43879;-80
2023/09/21 09:53:10;;;;;;;;;;;24.60;76.50;;;;;;5104929;27;43003;-81
2023/09/21 09:55:37;;;;;;;;;;;24.60;76.30;;;;;;5092384;27;43038;-82
2023/09/21 09:58:08;;;;;;;;;;;24.60;76.30;;;;;;5105221;27;43011;-80
2023/09/21 10:00:39;;;;;;;;;;;24.70;74.30;;;;;;5086227;27;44411;-81
2023/09/21 10:03:09;;;;;;;;;;;24.70;74.30;;;;;;5103980;27;42983;-81
2023/09/21 10:05:38;;;;;;;;;;;24.60;76.60;;;;;;5094835;27;43000;-80
2023/09/21 10:08:06;;;;;;;;;;;24.50;75.00;;;;;;5105844;27;42995;-81
2023/09/21 10:10:46;;;;;;;;;;;24.80;76.50;;;;;;5105100;27;43538;-81
2023/09/21 10:13:11;;;;;;;;;;;24.70;74.40;;;;;;5086792;27;42917;-80
2023/09/21 10:15:37;;;;;;;;;;;24.80;76.50;;;;;;5101489;27;43093;-82
2023/09/21 10:18:04;;;;;;;;;;;24.60;76.30;;;;;;5105173;27;43114;-80
2023/09/21 10:20:33;;;;;;;;;;;24.70;75.90;;;;;;5082056;27;43730;-80
2023/09/21 10:23:09;;;;;;;;;;;24.70;74.70;;;;;;5099258;27;43020;-80
2023/09/21 10:25:39;;;;;;;;;;;25.20;74.30;;;;;;5104919;27;43002;-80
2023/09/21 10:28:27;;;;;;;;;;;25.20;76.60;;;;;;5103094;27;42897;-80
2023/09/21 10:31:13;;;;;;;;;;;24.70;73.70;;;;;;5100326;27;43500;-80
2023/09/21 10:34:03;;;;;;;;;;;24.80;73.60;;;;;;5105039;27;42992;-81
2023/09/21 10:36:30;;;;;;;;;;;24.70;73.80;;;;;;5104779;27;43017;-81
2023/09/21 10:39:11;;;;;;;;;;;24.90;75.80;;;;;;5105788;27;42919;-81
2023/09/21 10:41:42;;;;;;;;;;;24.90;73.10;;;;;;5105350;27;43054;-82
2023/09/21 10:44:08;;;;;;;;;;;24.90;74.40;;;;;;5079160;27;42957;-81
2023/09/21 10:46:34;;;;;;;;;;;25.10;75.20;;;;;;5103491;27;43369;-83
2023/09/21 10:49:03;;;;;;;;;;;24.80;75.10;;;;;;5100467;27;42973;-82
2023/09/21 10:51:33;;;;;;;;;;;25.10;72.90;;;;;;5104479;27;43666;-83
2023/09/21 10:53:59;;;;;;;;;;;24.90;73.10;;;;;;5105093;27;42915;-81
2023/09/21 10:56:26;;;;;;;;;;;24.40;74.90;;;;;;5104184;27;43027;-82
2023/09/21 10:58:52;;;;;;;;;;;24.80;74.90;;;;;;5104021;27;42944;-82
2023/09/21 11:01:18;;;;;;;;;;;25.00;74.70;;;;;;5098468;27;43197;-81
2023/09/21 11:03:47;;;;;;;;;;;24.90;74.70;;;;;;5102036;27;42979;-84
2023/09/21 11:06:16;;;;;;;;;;;25.30;74.40;;;;;;5076891;27;43633;-82
2023/09/21 11:08:42;;;;;;;;;;;24.90;74.00;;;;;;5104644;27;42999;-82
2023/09/21 11:11:07;;;;;;;;;;;24.90;73.60;;;;;;5104372;27;43729;-82
2023/09/21 11:13:33;;;;;;;;;;;24.90;73.50;;;;;;5104257;27;42942;-82
2023/09/21 11:15:58;;;;;;;;;;;25.00;72.80;;;;;;5103197;27;43669;-83
2023/09/21 11:18:24;;;;;;;;;;;25.00;72.80;;;;;;5102785;27;42972;-82
2023/09/21 11:20:49;;;;;;;;;;;24.80;72.90;;;;;;5104321;27;43104;-82
2023/09/21 11:23:17;;;;;;;;;;;24.90;73.30;;;;;;5096405;27;43015;-83
2023/09/21 11:25:43;;;;;;;;;;;24.90;73.50;;;;;;5095200;27;42929;-81
2023/09/21 11:28:08;;;;;;;;;;;25.10;73.40;;;;;;5103118;27;42853;-81
2023/09/21 11:30:38;;;;;;;;;;;25.00;73.20;;;;;;5102933;27;43053;-82
2023/09/21 11:33:04;;;;;;;;;;;24.90;71.30;;;;;;5099914;27;43100;-81
2023/09/21 11:35:30;;;;;;;;;;;25.00;73.20;;;;;;5104128;27;43402;-82
2023/09/21 11:37:56;;;;;;;;;;;25.00;73.30;;;;;;5102502;27;43065;-81
2023/09/21 11:40:21;;;;;;;;;;;24.90;73.60;;;;;;5107127;27;43127;-81
2023/09/21 11:42:48;;;;;;;;;;;24.90;73.40;;;;;;5105033;27;42996;-82
2023/09/21 11:45:17;;;;;;;;;;;25.00;73.40;;;;;;5107692;27;42920;-81
2023/09/21 11:47:50;;;;;;;;;;;24.90;70.10;;;;;;5107667;27;43063;-82
2023/09/21 11:50:22;;;;;;;;;;;24.90;69.30;;;;;;5106936;27;42870;-82
2023/09/21 11:52:54;;;;;;;;;;;25.30;69.40;;;;;;5107044;27;43056;-83
2023/09/21 11:55:21;;;;;;;;;;;25.10;69.60;;;;;;5106989;27;43400;-83
2023/09/21 11:57:46;;;;;;;;;;;24.80;71.70;;;;;;5106895;27;42984;-83
2023/09/21 12:00:17;;;;;;;;;;;24.90;71.90;;;;;;5107321;27;42943;-83
2023/09/21 12:02:45;;;;;;;;;;;24.90;72.30;;;;;;5106358;27;42869;-82
2023/09/21 12:05:14;;;;;;;;;;;25.00;71.60;;;;;;5107105;27;43415;-78
2023/09/21 12:07:41;;;;;;;;;;;25.00;71.00;;;;;;5098223;27;43166;-78
2023/09/21 12:10:07;;;;;;;;;;;24.70;71.80;;;;;;5096591;27;43049;-77
2023/09/21 12:12:33;;;;;;;;;;;25.00;71.50;;;;;;5097857;27;43028;-78
2023/09/21 12:14:58;;;;;;;;;;;25.00;72.50;;;;;;5098037;27;42959;-77
2023/09/21 12:17:26;;;;;;;;;;;24.90;71.80;;;;;;5096180;27;42948;-77
2023/09/21 12:19:53;;;;;;;;;;;25.10;72.40;;;;;;5098168;27;42845;-77
2023/09/21 12:22:18;;;;;;;;;;;24.90;72.10;;;;;;5102562;27;43046;-77
2023/09/21 12:24:44;;;;;;;;;;;25.10;72.20;;;;;;5102183;27;42949;-77
2023/09/21 12:27:10;;;;;;;;;;;25.00;72.30;;;;;;5093740;27;42889;-81
2023/09/21 12:29:36;;;;;;;;;;;24.90;72.40;;;;;;5087216;28;43650;-78
2023/09/21 12:32:05;;;;;;;;;;;25.00;72.10;;;;;;5087633;28;42901;-77
2023/09/21 12:34:34;;;;;;;;;;;24.90;71.80;;;;;;5086859;28;43700;-78
2023/09/21 12:37:00;;;;;;;;;;;24.60;69.80;;;;;;5087364;28;42959;-78
2023/09/21 12:39:25;;;;;;;;;;;25.00;72.40;;;;;;5099058;27;43032;-79
2023/09/21 12:41:51;;;;;;;;;;;25.10;72.50;;;;;;5081827;27;43069;-80
2023/09/21 12:44:17;;;;;;;;;;;24.90;71.60;;;;;;5096765;27;43686;-77
2023/09/21 12:46:43;;;;;;;;;;;24.90;72.10;;;;;;5096268;27;43057;-78
2023/09/21 12:49:08;;;;;;;;;;;24.90;71.90;;;;;;5095957;27;42972;-82
2023/09/21 12:51:34;;;;;;;;;;;25.00;71.80;;;;;;5104997;27;42954;-79
2023/09/21 12:54:00;;;;;;;;;;;24.90;72.10;;;;;;5096676;27;43025;-80
2023/09/21 12:56:26;;;;;;;;;;;25.00;72.10;;;;;;5097867;27;42975;-79
2023/09/21 12:58:53;;;;;;;;;;;25.10;71.90;;;;;;5097688;27;43375;-79
2023/09/21 13:01:19;;;;;;;;;;;25.10;72.00;;;;;;5096573;27;42988;-83
2023/09/21 13:03:45;;;;;;;;;;;25.00;71.90;;;;;;5103310;27;43866;-78
2023/09/21 13:06:13;;;;;;;;;;;25.00;71.90;;;;;;5102430;27;43246;-83
2023/09/21 13:08:39;;;;;;;;;;;25.10;71.80;;;;;;5100699;27;43716;-81
2023/09/21 13:11:04;;;;;;;;;;;25.50;72.00;;;;;;5085079;27;42894;-79
2023/09/21 13:13:30;;;;;;;;;;;25.00;71.40;;;;;;5096679;27;42956;-80
2023/09/21 13:15:58;;;;;;;;;;;25.10;71.40;;;;;;5097790;27;42926;-85
2023/09/21 13:18:24;;;;;;;;;;;25.30;71.60;;;;;;5095565;27;42956;-79
2023/09/21 13:20:50;;;;;;;;;;;24.90;71.10;;;;;;5091466;27;43279;-79
2023/09/21 13:23:15;;;;;;;;;;;25.10;70.60;;;;;;5084590;28;44555;-79
2023/09/21 13:25:41;;;;;;;;;;;24.90;71.40;;;;;;5098684;27;42971;-77
2023/09/21 13:28:06;;;;;;;;;;;24.90;71.70;;;;;;5103817;27;43402;-78
2023/09/21 13:30:33;;;;;;;;;;;25.20;72.40;;;;;;5095090;27;42978;-77
2023/09/21 13:32:58;;;;;;;;;;;25.30;73.50;;;;;;5095362;27;43106;-77
2023/09/21 13:35:24;;;;;;;;;;;25.20;73.80;;;;;;5096175;27;43078;-80
2023/09/21 13:37:49;;;;;;;;;;;25.00;74.30;;;;;;5095464;27;44314;-78
2023/09/21 13:40:15;;;;;;;;;;;25.00;74.60;;;;;;5095296;27;43115;-78
2023/09/21 13:42:41;;;;;;;;;;;25.10;74.90;;;;;;5105137;27;43501;-78
2023/09/21 13:45:10;;;;;;;;;;;25.10;75.20;;;;;;5106358;27;42913;-81
2023/09/21 13:47:36;;;;;;;;;;;25.20;74.50;;;;;;5106363;27;42857;-77
2023/09/21 13:50:01;;;;;;;;;;;25.20;75.70;;;;;;5087775;27;43037;-80
2023/09/21 13:52:27;;;;;;;;;;;25.40;76.30;;;;;;5105557;27;43349;-80
2023/09/21 13:54:55;;;;;;;;;;;25.20;76.60;;;;;;5106150;27;43167;-80
2023/09/21 13:57:21;;;;;;;;;;;25.10;76.30;;;;;;5086356;27;43605;-80
2023/09/21 13:59:47;;;;;;;;;;;25.10;76.90;;;;;;5102738;27;42978;-80
2023/09/21 14:02:13;;;;;;;;;;;25.10;77.00;;;;;;5098946;27;43812;-80
2023/09/21 14:04:39;;;;;;;;;;;25.10;77.10;;;;;;5100320;27;42823;-81
2023/09/21 14:07:06;;;;;;;;;;;25.10;76.90;;;;;;5105903;27;43532;-80
2023/09/21 14:09:32;;;;;;;;;;;25.20;76.90;;;;;;5105973;27;43240;-81
2023/09/21 14:11:58;;;;;;;;;;;25.10;76.90;;;;;;5105898;27;42868;-81
2023/09/21 14:14:25;;;;;;;;;;;25.10;77.00;;;;;;5104250;27;42923;-81